createdAt,value
2018-01-05T00:00:24.876Z,0
2018-01-05T00:01:25.129Z,0
2018-01-05T00:02:25.101Z,0
2018-01-05T00:03:25.089Z,0
2018-01-05T00:04:25.063Z,0
2018-01-05T00:05:24.516Z,0
2018-01-05T00:06:25.289Z,0
2018-01-05T00:07:25.274Z,0
2018-01-05T00:08:25.252Z,0
2018-01-05T00:09:24.970Z,0
2018-01-05T00:10:24.959Z,0
2018-01-05T00:11:24.667Z,0
2018-01-05T00:12:24.655Z,0
2018-01-05T00:13:24.630Z,0
2018-01-05T00:14:24.608Z,0
2018-01-05T00:15:25.126Z,0
2018-01-05T00:16:24.575Z,0
2018-01-05T00:17:24.555Z,0
2018-01-05T00:18:24.801Z,0
2018-01-05T00:19:24.510Z,0
2018-01-05T00:20:24.490Z,0
2018-01-05T00:21:24.473Z,0
2018-01-05T00:22:24.198Z,0
2018-01-05T00:23:24.444Z,0
2018-01-05T00:24:24.424Z,0
2018-01-05T00:25:24.406Z,0
2018-01-05T00:26:24.644Z,0
2018-01-05T00:27:25.097Z,0
2018-01-05T00:28:24.342Z,0
2018-01-05T00:29:24.589Z,0
2018-01-05T00:30:24.040Z,0
2018-01-05T00:31:24.549Z,0
2018-01-05T00:32:24.528Z,0
2018-01-05T00:33:24.519Z,0
2018-01-05T00:34:24.233Z,0
2018-01-05T00:35:24.206Z,0
2018-01-05T00:36:24.458Z,0
2018-01-05T00:37:24.169Z,0
2018-01-05T00:38:24.199Z,0
2018-01-05T00:39:24.398Z,0
2018-01-05T00:40:24.381Z,0
2018-01-05T00:41:24.629Z,0
2018-01-05T00:42:24.342Z,0
2018-01-05T00:43:24.327Z,0
2018-01-05T00:44:24.302Z,0
2018-01-05T00:45:24.288Z,0
2018-01-05T00:46:24.530Z,0
2018-01-05T00:47:24.563Z,0
2018-01-05T00:48:23.962Z,0
2018-01-05T00:49:24.205Z,0
2018-01-05T00:50:24.457Z,0
2018-01-05T00:51:24.173Z,0
2018-01-05T00:52:24.153Z,0
2018-01-05T00:53:23.867Z,0
2018-01-05T00:54:24.104Z,0
2018-01-05T00:55:24.357Z,0
2018-01-05T00:56:23.547Z,0
2018-01-05T00:57:24.052Z,0
2018-01-05T00:58:24.036Z,0
2018-01-05T00:59:23.485Z,0
2018-01-05T01:00:24.006Z,0
2018-01-05T01:01:23.719Z,0
2018-01-05T01:02:23.965Z,0
2018-01-05T01:03:23.677Z,0
2018-01-05T01:04:23.654Z,0
2018-01-05T01:05:23.646Z,0
2018-01-05T01:06:24.147Z,0
2018-01-05T01:07:23.334Z,0
2018-01-05T01:08:23.850Z,0
2018-01-05T01:09:23.559Z,0
2018-01-05T01:10:23.277Z,0
2018-01-05T01:11:23.523Z,0
2018-01-05T01:12:23.776Z,0
2018-01-05T01:13:23.488Z,0
2018-01-05T01:14:23.464Z,0
2018-01-05T01:15:23.710Z,0
2018-01-05T01:16:23.688Z,0
2018-01-05T01:17:23.404Z,0
2018-01-05T01:18:23.972Z,0
2018-01-05T01:19:23.639Z,0
2018-01-05T01:20:23.882Z,0
2018-01-05T01:21:23.325Z,0
2018-01-05T01:22:23.575Z,0
2018-01-05T01:23:23.552Z,0
2018-01-05T01:24:23.802Z,0
2018-01-05T01:25:23.778Z,0
2018-01-05T01:26:23.501Z,0
2018-01-05T01:27:23.485Z,0
2018-01-05T01:28:23.734Z,0
2018-01-05T01:29:23.445Z,0
2018-01-05T01:30:23.166Z,0
2018-01-05T01:31:23.667Z,0
2018-01-05T01:32:23.391Z,0
2018-01-05T01:33:23.368Z,0
2018-01-05T01:34:23.626Z,0
2018-01-05T01:35:23.593Z,0
2018-01-05T01:36:23.043Z,0
2018-01-05T01:37:23.552Z,0
2018-01-05T01:38:23.009Z,0
2018-01-05T01:39:23.258Z,0
2018-01-05T01:40:23.252Z,0
2018-01-05T01:41:23.475Z,0
2018-01-05T01:42:23.200Z,0
2018-01-05T01:43:23.228Z,0
2018-01-05T01:44:23.445Z,0
2018-01-05T01:45:23.409Z,0
2018-01-05T01:46:22.851Z,0
2018-01-05T01:47:22.840Z,0
2018-01-05T01:48:23.079Z,0
2018-01-05T01:49:23.331Z,0
2018-01-05T01:50:23.316Z,0
2018-01-05T01:51:22.763Z,0
2018-01-05T01:52:23.006Z,0
2018-01-05T01:53:22.990Z,0
2018-01-05T01:54:22.971Z,0
2018-01-05T01:55:22.947Z,0
2018-01-05T01:56:22.667Z,0
2018-01-05T01:57:22.911Z,0
2018-01-05T01:58:22.898Z,0
2018-01-05T01:59:22.874Z,0
2018-01-05T02:00:22.855Z,0
2018-01-05T02:01:23.096Z,0
2018-01-05T02:02:22.548Z,0
2018-01-05T02:03:22.264Z,0
2018-01-05T02:04:23.039Z,0
2018-01-05T02:05:23.023Z,0
2018-01-05T02:06:22.744Z,0
2018-01-05T02:07:22.728Z,0
2018-01-05T02:08:22.716Z,0
2018-01-05T02:09:22.685Z,0
2018-01-05T02:10:22.665Z,0
2018-01-05T02:11:22.648Z,0
2018-01-05T02:12:22.889Z,0
2018-01-05T02:13:22.866Z,0
2018-01-05T02:14:22.317Z,0
2018-01-05T02:15:22.571Z,0
2018-01-05T02:16:22.565Z,0
2018-01-05T02:17:22.265Z,0
2018-01-05T02:18:22.506Z,0
2018-01-05T02:19:21.961Z,0
2018-01-05T02:20:22.730Z,0
2018-01-05T02:21:22.183Z,0
2018-01-05T02:22:22.176Z,0
2018-01-05T02:23:22.683Z,0
2018-01-05T02:24:22.394Z,0
2018-01-05T02:25:22.649Z,0
2018-01-05T02:26:22.620Z,0
2018-01-05T02:27:22.003Z,0
2018-01-05T02:28:22.316Z,0
2018-01-05T02:29:22.569Z,0
2018-01-05T02:30:22.288Z,0
2018-01-05T02:31:21.992Z,0
2018-01-05T02:32:22.245Z,0
2018-01-05T02:33:21.955Z,0
2018-01-05T02:34:21.936Z,0
2018-01-05T02:35:21.912Z,0
2018-01-05T02:36:22.163Z,0
2018-01-05T02:37:21.884Z,0
2018-01-05T02:38:22.176Z,0
2018-01-05T02:39:22.375Z,0
2018-01-05T02:40:22.091Z,0
2018-01-05T02:41:21.811Z,0
2018-01-05T02:42:22.048Z,0
2018-01-05T02:43:21.766Z,0
2018-01-05T02:44:22.275Z,0
2018-01-05T02:45:21.725Z,0
2018-01-05T02:46:22.236Z,0
2018-01-05T02:47:21.953Z,0
2018-01-05T02:48:21.671Z,0
2018-01-05T02:49:21.973Z,0
2018-01-05T02:50:21.630Z,0
2018-01-05T02:51:21.615Z,0
2018-01-05T02:52:21.863Z,0
2018-01-05T02:53:21.577Z,0
2018-01-05T02:54:21.554Z,0
2018-01-05T02:55:21.539Z,0
2018-01-05T02:56:21.527Z,0
2018-01-05T02:57:22.028Z,0
2018-01-05T02:58:22.021Z,0
2018-01-05T02:59:21.731Z,0
2018-01-05T03:00:21.703Z,0
2018-01-05T03:01:21.688Z,0
2018-01-05T03:02:21.138Z,0
2018-01-05T03:03:21.649Z,0
2018-01-05T03:04:21.371Z,0
2018-01-05T03:05:21.882Z,0
2018-01-05T03:06:21.324Z,0
2018-01-05T03:07:21.572Z,0
2018-01-05T03:08:21.552Z,0
2018-01-05T03:09:21.267Z,0
2018-01-05T03:10:21.776Z,0
2018-01-05T03:11:21.229Z,0
2018-01-05T03:12:20.951Z,0
2018-01-05T03:13:21.727Z,0
2018-01-05T03:14:21.438Z,0
2018-01-05T03:15:21.677Z,0
2018-01-05T03:16:21.668Z,0
2018-01-05T03:17:21.121Z,0
2018-01-05T03:18:21.362Z,0
2018-01-05T03:19:21.347Z,0
2018-01-05T03:20:21.330Z,0
2018-01-05T03:21:21.302Z,0
2018-01-05T03:22:21.610Z,0
2018-01-05T03:23:21.536Z,0
2018-01-05T03:24:20.986Z,0
2018-01-05T03:25:21.506Z,0
2018-01-05T03:26:21.206Z,0
2018-01-05T03:27:20.929Z,0
2018-01-05T03:28:20.906Z,0
2018-01-05T03:29:21.412Z,0
2018-01-05T03:30:21.188Z,0
2018-01-05T03:31:21.124Z,0
2018-01-05T03:32:20.833Z,0
2018-01-05T03:33:20.821Z,0
2018-01-05T03:34:20.815Z,0
2018-01-05T03:35:21.040Z,0
2018-01-05T03:36:20.752Z,0
2018-01-05T03:37:21.262Z,0
2018-01-05T03:38:21.247Z,0
2018-01-05T03:39:20.431Z,0
2018-01-05T03:40:21.213Z,0
2018-01-05T03:41:20.931Z,0
2018-01-05T03:42:21.167Z,0
2018-01-05T03:43:21.157Z,0
2018-01-05T03:44:20.874Z,0
2018-01-05T03:45:20.853Z,0
2018-01-05T03:46:20.571Z,0
2018-01-05T03:47:20.811Z,0
2018-01-05T03:48:20.534Z,0
2018-01-05T03:49:20.777Z,0
2018-01-05T03:50:20.757Z,0
2018-01-05T03:51:20.733Z,0
2018-01-05T03:52:20.716Z,0
2018-01-05T03:53:20.757Z,0
2018-01-05T03:54:20.681Z,0
2018-01-05T03:55:20.661Z,0
2018-01-05T03:56:20.114Z,0
2018-01-05T03:57:20.351Z,0
2018-01-05T03:58:20.608Z,0
2018-01-05T03:59:20.585Z,0
2018-01-05T04:00:20.565Z,0
2018-01-05T04:01:20.539Z,0
2018-01-05T04:02:20.267Z,0
2018-01-05T04:03:20.512Z,0
2018-01-05T04:04:20.227Z,0
2018-01-05T04:05:20.477Z,0
2018-01-05T04:06:20.185Z,0
2018-01-05T04:07:20.433Z,0
2018-01-05T04:08:20.152Z,0
2018-01-05T04:09:20.390Z,0
2018-01-05T04:10:20.373Z,0
2018-01-05T04:11:20.354Z,0
2018-01-05T04:12:20.601Z,0
2018-01-05T04:13:20.058Z,0
2018-01-05T04:14:20.045Z,0
2018-01-05T04:15:20.536Z,0
2018-01-05T04:16:20.033Z,0
2018-01-05T04:17:19.984Z,0
2018-01-05T04:18:19.956Z,0
2018-01-05T04:19:20.469Z,0
2018-01-05T04:20:19.648Z,0
2018-01-05T04:21:19.910Z,0
2018-01-05T04:22:20.402Z,0
2018-01-05T04:23:19.865Z,0
2018-01-05T04:24:20.364Z,0
2018-01-05T04:25:20.342Z,0
2018-01-05T04:26:20.065Z,0
2018-01-05T04:27:20.246Z,0
2018-01-05T04:28:20.027Z,0
2018-01-05T04:29:19.742Z,0
2018-01-05T04:30:19.989Z,0
2018-01-05T04:31:19.970Z,0
2018-01-05T04:32:19.689Z,0
2018-01-05T04:33:19.661Z,0
2018-01-05T04:34:19.902Z,0
2018-01-05T04:35:19.628Z,0
2018-01-05T04:36:19.602Z,0
2018-01-05T04:37:20.114Z,0
2018-01-05T04:38:19.844Z,0
2018-01-05T04:39:19.806Z,0
2018-01-05T04:40:19.785Z,0
2018-01-05T04:41:19.504Z,0
2018-01-05T04:42:19.485Z,0
2018-01-05T04:43:19.463Z,0
2018-01-05T04:44:19.717Z,0
2018-01-05T04:45:19.429Z,0
2018-01-05T04:46:19.677Z,0
2018-01-05T04:47:19.396Z,0
2018-01-05T04:48:19.633Z,0
2018-01-05T04:49:19.884Z,0
2018-01-05T04:50:19.325Z,0
2018-01-05T04:51:19.573Z,0
2018-01-05T04:52:19.292Z,0
2018-01-05T04:53:19.808Z,0
2018-01-05T04:54:19.786Z,0
2018-01-05T04:55:19.495Z,0
2018-01-05T04:56:19.213Z,0
2018-01-05T04:57:19.459Z,0
2018-01-05T04:58:19.703Z,0
2018-01-05T04:59:19.153Z,0
2018-01-05T05:00:19.725Z,0
2018-01-05T05:01:19.641Z,0
2018-01-05T05:02:19.382Z,0
2018-01-05T05:03:19.605Z,0
2018-01-05T05:04:19.591Z,0
2018-01-05T05:05:19.318Z,0
2018-01-05T05:06:19.290Z,0
2018-01-05T05:07:19.268Z,0
2018-01-05T05:08:19.263Z,0
2018-01-05T05:09:18.974Z,0
2018-01-05T05:10:19.209Z,0
2018-01-05T05:11:19.451Z,0
2018-01-05T05:12:19.173Z,0
2018-01-05T05:13:19.139Z,0
2018-01-05T05:14:18.865Z,0
2018-01-05T05:15:19.371Z,0
2018-01-05T05:16:19.088Z,0
2018-01-05T05:17:19.329Z,0
2018-01-05T05:18:19.045Z,0
2018-01-05T05:19:19.023Z,0
2018-01-05T05:20:18.475Z,0
2018-01-05T05:21:18.719Z,0
2018-01-05T05:22:19.229Z,0
2018-01-05T05:23:18.950Z,0
2018-01-05T05:24:18.920Z,0
2018-01-05T05:25:18.634Z,0
2018-01-05T05:26:18.885Z,0
2018-01-05T05:27:18.596Z,0
2018-01-05T05:28:18.845Z,0
2018-01-05T05:29:18.825Z,0
2018-01-05T05:30:18.805Z,0
2018-01-05T05:31:18.793Z,0
2018-01-05T05:32:18.762Z,0
2018-01-05T05:33:18.744Z,0
2018-01-05T05:34:18.470Z,0
2018-01-05T05:35:18.706Z,0
2018-01-05T05:36:18.472Z,0
2018-01-05T05:37:18.926Z,0
2018-01-05T05:38:18.646Z,0
2018-01-05T05:39:18.889Z,0
2018-01-05T05:40:18.606Z,0
2018-01-05T05:41:18.849Z,0
2018-01-05T05:42:18.833Z,0
2018-01-05T05:43:18.283Z,0
2018-01-05T05:44:18.013Z,0
2018-01-05T05:45:18.513Z,0
2018-01-05T05:46:18.807Z,0
2018-01-05T05:47:17.938Z,0
2018-01-05T05:48:18.718Z,0
2018-01-05T05:49:18.694Z,0
2018-01-05T05:50:18.413Z,0
2018-01-05T05:52:18.374Z,0
2018-01-05T05:53:18.626Z,0
2018-01-05T05:54:18.596Z,0
2018-01-05T05:55:18.580Z,0
2018-01-05T05:56:18.288Z,0
2018-01-05T05:57:18.272Z,0
2018-01-05T05:58:18.251Z,0
2018-01-05T05:59:18.496Z,0
2018-01-05T06:00:18.211Z,0
2018-01-05T06:01:17.927Z,0
2018-01-05T06:02:18.174Z,0
2018-01-05T06:03:18.419Z,0
2018-01-05T06:04:17.604Z,0
2018-01-05T06:05:18.383Z,0
2018-01-05T06:06:18.111Z,0
2018-01-05T06:07:18.350Z,0
2018-01-05T06:08:18.065Z,0
2018-01-05T06:09:18.037Z,0
2018-01-05T06:10:18.019Z,0
2018-01-05T06:11:17.999Z,0
2018-01-05T06:12:18.257Z,0
2018-01-05T06:13:17.961Z,0
2018-01-05T06:14:18.209Z,0
2018-01-05T06:15:17.401Z,0
2018-01-05T06:16:17.906Z,0
2018-01-05T06:17:17.885Z,0
2018-01-05T06:18:17.868Z,0
2018-01-05T06:19:17.852Z,0
2018-01-05T06:20:17.886Z,0
2018-01-05T06:21:17.813Z,0
2018-01-05T06:22:17.792Z,0
2018-01-05T06:23:17.771Z,0
2018-01-05T06:24:17.487Z,0
2018-01-05T06:25:17.830Z,0
2018-01-05T06:26:17.987Z,0
2018-01-05T06:27:17.633Z,0
2018-01-05T06:28:17.678Z,0
2018-01-05T06:29:17.657Z,0
2018-01-05T06:30:17.108Z,0
2018-01-05T06:31:17.103Z,0
2018-01-05T06:32:17.647Z,0
2018-01-05T06:33:17.582Z,0
2018-01-05T06:34:17.836Z,0
2018-01-05T06:35:17.811Z,0
2018-01-05T06:36:16.998Z,0
2018-01-05T06:37:17.510Z,0
2018-01-05T06:38:17.493Z,0
2018-01-05T06:39:17.733Z,0
2018-01-05T06:40:17.198Z,0
2018-01-05T06:41:17.703Z,0
2018-01-05T06:42:17.156Z,0
2018-01-05T06:43:17.659Z,0
2018-01-05T06:44:17.376Z,0
2018-01-05T06:45:17.127Z,0
2018-01-05T06:46:17.339Z,0
2018-01-05T06:47:17.056Z,0
2018-01-05T06:48:17.040Z,0
2018-01-05T06:49:17.569Z,0
2018-01-05T06:50:17.260Z,0
2018-01-05T06:51:16.983Z,0
2018-01-05T06:52:17.492Z,0
2018-01-05T06:53:17.482Z,0
2018-01-05T06:54:17.189Z,0
2018-01-05T06:55:17.190Z,0
2018-01-05T06:56:17.154Z,0
2018-01-05T06:57:17.185Z,0
2018-01-05T06:58:17.114Z,0
2018-01-05T06:59:17.098Z,0
2018-01-05T07:00:16.550Z,0
2018-01-05T07:01:17.323Z,0
2018-01-05T07:02:17.307Z,0
2018-01-05T07:03:17.020Z,0
2018-01-05T07:04:17.274Z,0
2018-01-05T07:05:16.983Z,0
2018-01-05T07:06:16.706Z,4
2018-01-05T07:07:16.961Z,0
2018-01-05T07:08:17.194Z,4
2018-01-05T07:09:17.175Z,4
2018-01-05T07:10:17.253Z,4
2018-01-05T07:11:16.874Z,4
2018-01-05T07:12:16.866Z,8
2018-01-05T07:13:16.836Z,8
2018-01-05T07:14:16.831Z,8
2018-01-05T07:15:16.805Z,8
2018-01-05T07:16:16.786Z,12
2018-01-05T07:17:17.028Z,12
2018-01-05T07:18:16.741Z,16
2018-01-05T07:19:16.724Z,20
2018-01-05T07:20:16.969Z,20
2018-01-05T07:21:16.155Z,24
2018-01-05T07:22:16.943Z,28
2018-01-05T07:23:16.381Z,32
2018-01-05T07:24:16.628Z,32
2018-01-05T07:25:16.624Z,40
2018-01-05T07:26:16.603Z,48
2018-01-05T07:27:16.587Z,52
2018-01-05T07:28:16.849Z,56
2018-01-05T07:29:16.282Z,64
2018-01-05T07:30:16.527Z,72
2018-01-05T07:31:16.241Z,76
2018-01-05T07:32:16.219Z,84
2018-01-05T07:33:16.472Z,92
2018-01-05T07:34:16.466Z,104
2018-01-05T07:35:16.429Z,112
2018-01-05T07:36:16.681Z,124
2018-01-05T07:37:16.129Z,128
2018-01-05T07:38:16.371Z,148
2018-01-05T07:39:16.100Z,160
2018-01-05T07:40:16.334Z,172
2018-01-05T07:41:16.317Z,188
2018-01-05T07:42:16.303Z,200
2018-01-05T07:43:16.017Z,216
2018-01-05T07:44:15.996Z,236
2018-01-05T07:45:15.985Z,248
2018-01-05T07:46:16.226Z,256
2018-01-05T07:47:16.207Z,252
2018-01-05T07:48:16.191Z,308
2018-01-05T07:49:16.432Z,340
2018-01-05T07:50:16.179Z,300
2018-01-05T07:51:16.402Z,364
2018-01-05T07:52:16.383Z,444
2018-01-05T07:53:15.822Z,484
2018-01-05T07:54:15.811Z,488
2018-01-05T07:55:16.066Z,440
2018-01-05T07:56:15.780Z,356
2018-01-05T07:57:16.022Z,256
2018-01-05T07:58:15.996Z,312
2018-01-05T07:59:15.987Z,452
2018-01-05T08:00:15.704Z,428
2018-01-05T08:01:15.678Z,312
2018-01-05T08:02:15.929Z,284
2018-01-05T08:03:15.905Z,268
2018-01-05T08:04:15.894Z,312
2018-01-05T08:05:15.609Z,372
2018-01-05T08:06:16.120Z,420
2018-01-05T08:07:16.100Z,492
2018-01-05T08:08:16.126Z,564
2018-01-05T08:09:15.533Z,764
2018-01-05T08:10:15.509Z,844
2018-01-05T08:11:16.034Z,1060
2018-01-05T08:12:16.007Z,1048
2018-01-05T08:13:15.729Z,1176
2018-01-05T08:14:15.704Z,1432
2018-01-05T08:15:15.688Z,1236
2018-01-05T08:16:15.935Z,1116
2018-01-05T08:17:15.653Z,1060
2018-01-05T08:18:15.895Z,976
2018-01-05T08:19:15.611Z,792
2018-01-05T08:20:15.603Z,640
2018-01-05T08:21:15.844Z,576
2018-01-05T08:22:15.557Z,764
2018-01-05T08:23:15.545Z,844
2018-01-05T08:24:14.996Z,864
2018-01-05T08:25:15.505Z,872
2018-01-05T08:26:15.480Z,764
2018-01-05T08:27:15.668Z,652
2018-01-05T08:28:15.715Z,780
2018-01-05T08:29:15.699Z,872
2018-01-05T08:30:15.419Z,1096
2018-01-05T08:31:15.656Z,1240
2018-01-05T08:32:15.385Z,1152
2018-01-05T08:33:15.365Z,1228
2018-01-05T08:34:15.081Z,1304
2018-01-05T08:35:15.328Z,1156
2018-01-05T08:36:15.303Z,984
2018-01-05T08:37:14.764Z,1140
2018-01-05T08:38:15.312Z,1172
2018-01-05T08:39:15.513Z,1496
2018-01-05T08:40:15.228Z,1208
2018-01-05T08:41:14.946Z,1272
2018-01-05T08:42:15.189Z,1520
2018-01-05T08:43:15.173Z,1460
2018-01-05T08:44:15.161Z,1428
2018-01-05T08:45:15.143Z,1272
2018-01-05T08:46:15.118Z,1184
2018-01-05T08:47:14.574Z,1180
2018-01-05T08:48:15.084Z,1760
2018-01-05T08:49:15.331Z,2024
2018-01-05T08:50:15.052Z,1832
2018-01-05T08:51:14.764Z,2012
2018-01-05T08:52:15.011Z,2256
2018-01-05T08:53:14.462Z,2292
2018-01-05T08:54:14.973Z,2256
2018-01-05T08:55:14.955Z,2232
2018-01-05T08:56:14.671Z,2288
2018-01-05T08:57:14.918Z,1944
2018-01-05T08:58:15.171Z,1628
2018-01-05T08:59:14.621Z,1280
2018-01-05T09:00:14.600Z,1428
2018-01-05T09:01:14.853Z,1776
2018-01-05T09:02:14.829Z,1828
2018-01-05T09:03:14.816Z,2044
2018-01-05T09:04:14.790Z,1776
2018-01-05T09:05:14.775Z,1908
2018-01-05T09:06:14.491Z,1908
2018-01-05T09:07:14.474Z,1924
2018-01-05T09:08:14.722Z,1920
2018-01-05T09:09:14.704Z,1720
2018-01-05T09:10:14.969Z,1596
2018-01-05T09:11:14.930Z,1472
2018-01-05T09:12:14.382Z,1168
2018-01-05T09:13:14.630Z,1584
2018-01-05T09:14:14.882Z,2468
2018-01-05T09:15:14.596Z,2888
2018-01-05T09:16:14.315Z,3076
2018-01-05T09:17:14.298Z,3172
2018-01-05T09:18:14.804Z,3212
2018-01-05T09:19:14.255Z,3172
2018-01-05T09:20:14.237Z,3120
2018-01-05T09:21:14.225Z,3200
2018-01-05T09:22:14.208Z,3320
2018-01-05T09:23:14.183Z,3640
2018-01-05T09:24:14.168Z,3932
2018-01-05T09:25:14.149Z,3980
2018-01-05T09:26:13.880Z,3844
2018-01-05T09:27:14.122Z,3752
2018-01-05T09:28:14.099Z,3616
2018-01-05T09:29:14.395Z,3620
2018-01-05T09:30:14.063Z,3500
2018-01-05T09:31:14.571Z,3536
2018-01-05T09:32:14.026Z,3716
2018-01-05T09:33:14.272Z,3812
2018-01-05T09:34:14.254Z,3736
2018-01-05T09:35:14.240Z,3876
2018-01-05T09:36:13.957Z,4016
2018-01-05T09:37:13.931Z,4064
2018-01-05T09:38:14.177Z,4144
2018-01-05T09:39:13.895Z,4204
2018-01-05T09:40:14.148Z,4128
2018-01-05T09:41:13.865Z,3992
2018-01-05T09:42:13.847Z,3988
2018-01-05T09:43:14.100Z,4016
2018-01-05T09:44:14.074Z,4016
2018-01-05T09:45:13.532Z,3976
2018-01-05T09:46:13.775Z,3972
2018-01-05T09:47:14.019Z,4036
2018-01-05T09:48:14.018Z,3996
2018-01-05T09:49:13.457Z,3980
2018-01-05T09:50:14.250Z,3992
2018-01-05T09:51:14.219Z,3800
2018-01-05T09:52:13.940Z,3428
2018-01-05T09:53:13.648Z,3028
2018-01-05T09:54:13.882Z,3304
2018-01-05T09:55:13.874Z,3284
2018-01-05T09:56:13.859Z,3328
2018-01-05T09:57:14.108Z,3420
2018-01-05T09:58:13.564Z,3192
2018-01-05T09:59:13.867Z,3684
2018-01-05T10:00:14.051Z,3856
2018-01-05T10:01:13.768Z,2916
2018-01-05T10:02:13.762Z,3032
2018-01-05T10:03:13.471Z,3624
2018-01-05T10:04:13.736Z,3856
2018-01-05T10:05:13.965Z,4324
2018-01-05T10:06:13.159Z,4580
2018-01-05T10:07:13.665Z,4668
2018-01-05T10:08:13.932Z,4708
2018-01-05T10:09:13.909Z,4884
2018-01-05T10:10:13.356Z,5072
2018-01-05T10:11:13.330Z,4988
2018-01-05T10:12:13.320Z,4988
2018-01-05T10:13:13.305Z,4736
2018-01-05T10:14:13.301Z,3664
2018-01-05T10:15:13.794Z,3456
2018-01-05T10:16:13.512Z,3360
2018-01-05T10:17:13.767Z,4300
2018-01-05T10:18:13.480Z,4364
2018-01-05T10:19:13.460Z,3428
2018-01-05T10:20:13.448Z,3276
2018-01-05T10:21:12.891Z,4060
2018-01-05T10:22:13.148Z,4372
2018-01-05T10:23:13.399Z,4424
2018-01-05T10:24:13.686Z,4872
2018-01-05T10:25:13.624Z,5456
2018-01-05T10:26:13.334Z,5680
2018-01-05T10:27:13.455Z,5728
2018-01-05T10:28:13.031Z,5488
2018-01-05T10:29:13.548Z,5044
2018-01-05T10:30:13.529Z,4552
2018-01-05T10:31:13.247Z,4484
2018-01-05T10:32:13.226Z,4604
2018-01-05T10:33:12.957Z,4628
2018-01-05T10:34:13.195Z,4944
2018-01-05T10:35:13.180Z,5200
2018-01-05T10:36:12.630Z,5372
2018-01-05T10:37:13.408Z,5412
2018-01-05T10:38:12.595Z,5376
2018-01-05T10:39:13.107Z,5452
2018-01-05T10:40:12.829Z,5504
2018-01-05T10:41:13.076Z,5644
2018-01-05T10:42:13.057Z,5804
2018-01-05T10:43:13.044Z,5872
2018-01-05T10:44:13.286Z,5968
2018-01-05T10:45:13.266Z,6200
2018-01-05T10:46:12.993Z,6296
2018-01-05T10:47:12.710Z,6168
2018-01-05T10:48:12.957Z,6136
2018-01-05T10:49:12.933Z,6744
2018-01-05T10:50:13.186Z,6696
2018-01-05T10:51:13.162Z,6280
2018-01-05T10:52:12.885Z,6088
2018-01-05T10:53:12.602Z,6132
2018-01-05T10:54:13.117Z,6268
2018-01-05T10:55:13.097Z,6008
2018-01-05T10:56:13.085Z,5392
2018-01-05T10:57:13.062Z,5656
2018-01-05T10:58:12.515Z,5856
2018-01-05T10:59:12.770Z,5624
2018-01-05T11:00:12.762Z,5500
2018-01-05T11:01:13.009Z,5228
2018-01-05T11:02:12.714Z,5404
2018-01-05T11:03:12.703Z,5344
2018-01-05T11:04:12.959Z,5356
2018-01-05T11:05:12.935Z,5316
2018-01-05T11:06:12.651Z,5536
2018-01-05T11:07:12.896Z,5300
2018-01-05T11:08:12.618Z,4980
2018-01-05T11:09:12.874Z,4796
2018-01-05T11:10:12.323Z,4908
2018-01-05T11:11:12.563Z,5180
2018-01-05T11:12:12.811Z,5500
2018-01-05T11:13:12.270Z,5472
2018-01-05T11:14:12.513Z,5332
2018-01-05T11:15:12.500Z,5216
2018-01-05T11:16:12.480Z,5184
2018-01-05T11:17:12.736Z,5104
2018-01-05T11:18:12.182Z,5068
2018-01-05T11:19:12.168Z,5152
2018-01-05T11:20:12.410Z,5408
2018-01-05T11:21:12.407Z,5740
2018-01-05T11:22:12.379Z,5728
2018-01-05T11:23:12.624Z,5872
2018-01-05T11:24:12.078Z,5896
2018-01-05T11:25:12.333Z,5744
2018-01-05T11:26:12.360Z,5516
2018-01-05T11:27:12.296Z,5508
2018-01-05T11:28:12.278Z,5228
2018-01-05T11:29:12.525Z,5052
2018-01-05T11:30:12.569Z,5140
2018-01-05T11:31:11.695Z,5592
2018-01-05T11:32:12.475Z,5524
2018-01-05T11:33:12.463Z,5328
2018-01-05T11:34:12.174Z,4960
2018-01-05T11:35:11.633Z,4792
2018-01-05T11:36:12.414Z,4840
2018-01-05T11:37:12.152Z,4980
2018-01-05T11:38:12.128Z,4884
2018-01-05T11:39:12.099Z,4716
2018-01-05T11:40:12.087Z,4720
2018-01-05T11:41:11.796Z,4940
2018-01-05T11:42:12.082Z,5088
2018-01-05T11:43:12.026Z,5032
2018-01-05T11:44:11.747Z,4912
2018-01-05T11:45:12.003Z,4864
2018-01-05T11:46:12.247Z,4956
2018-01-05T11:47:12.218Z,5032
2018-01-05T11:48:11.943Z,4884
2018-01-05T11:49:11.397Z,4584
2018-01-05T11:50:11.911Z,4148
2018-01-05T11:51:12.160Z,3884
2018-01-05T11:52:11.611Z,3928
2018-01-05T11:53:11.327Z,3980
2018-01-05T11:54:11.849Z,3792
2018-01-05T11:55:11.563Z,3852
2018-01-05T11:56:11.550Z,4084
2018-01-05T11:57:11.521Z,4400
2018-01-05T11:58:11.772Z,3848
2018-01-05T11:59:11.505Z,3296
2018-01-05T12:00:11.735Z,2900
2018-01-05T12:01:11.460Z,2872
2018-01-05T12:02:11.820Z,3080
2018-01-05T12:03:11.686Z,3144
2018-01-05T12:04:11.935Z,3272
2018-01-05T12:05:11.655Z,3120
2018-01-05T12:06:11.950Z,3128
2018-01-05T12:07:11.697Z,3312
2018-01-05T12:08:11.607Z,3968
2018-01-05T12:09:11.602Z,4356
2018-01-05T12:10:11.859Z,4132
2018-01-05T12:11:11.296Z,4424
2018-01-05T12:12:11.803Z,5336
2018-01-05T12:13:11.254Z,5488
2018-01-05T12:14:11.772Z,5056
2018-01-05T12:15:11.492Z,4740
2018-01-05T12:16:11.736Z,5144
2018-01-05T12:17:11.452Z,5532
2018-01-05T12:18:11.443Z,5520
2018-01-05T12:19:11.414Z,5272
2018-01-05T12:20:11.137Z,5148
2018-01-05T12:21:11.174Z,5640
2018-01-05T12:22:11.107Z,6400
2018-01-05T12:23:11.100Z,6896
2018-01-05T12:24:11.104Z,6356
2018-01-05T12:25:11.623Z,5184
2018-01-05T12:26:11.064Z,4756
2018-01-05T12:27:11.294Z,5168
2018-01-05T12:28:11.478Z,5520
2018-01-05T12:29:11.258Z,5740
2018-01-05T12:30:10.982Z,4904
2018-01-05T12:31:10.971Z,4952
2018-01-05T12:32:11.472Z,5096
2018-01-05T12:33:11.197Z,5108
2018-01-05T12:34:11.174Z,4988
2018-01-05T12:35:10.892Z,4744
2018-01-05T12:36:11.154Z,4056
2018-01-05T12:37:11.122Z,3516
2018-01-05T12:38:10.852Z,4004
2018-01-05T12:39:11.377Z,5396
2018-01-05T12:40:11.086Z,5668
2018-01-05T12:41:11.096Z,5636
2018-01-05T12:42:11.309Z,5632
2018-01-05T12:43:11.289Z,5792
2018-01-05T12:44:10.751Z,5940
2018-01-05T12:45:11.258Z,6040
2018-01-05T12:46:10.717Z,6180
2018-01-05T12:47:10.960Z,6160
2018-01-05T12:48:10.955Z,6024
2018-01-05T12:49:10.946Z,5908
2018-01-05T12:50:10.974Z,5628
2018-01-05T12:51:10.900Z,5196
2018-01-05T12:52:10.610Z,4740
2018-01-05T12:53:10.599Z,4496
2018-01-05T12:54:10.589Z,4456
2018-01-05T12:55:10.564Z,4376
2018-01-05T12:56:10.813Z,4212
2018-01-05T12:57:10.271Z,4252
2018-01-05T12:58:10.783Z,4328
2018-01-05T12:59:10.825Z,4388
2018-01-05T13:00:11.021Z,4436
2018-01-05T13:01:10.744Z,4504
2018-01-05T13:02:10.770Z,4520
2018-01-05T13:03:10.698Z,4392
2018-01-05T13:04:10.687Z,4192
2018-01-05T13:05:10.402Z,4040
2018-01-05T13:06:10.654Z,3892
2018-01-05T13:07:10.367Z,3668
2018-01-05T13:08:10.629Z,3464
2018-01-05T13:09:10.337Z,3396
2018-01-05T13:10:10.596Z,3364
2018-01-05T13:11:10.308Z,3284
2018-01-05T13:12:10.288Z,3156
2018-01-05T13:13:10.538Z,3012
2018-01-05T13:14:10.792Z,2904
2018-01-05T13:15:10.507Z,2816
2018-01-05T13:16:10.755Z,2788
2018-01-05T13:17:10.737Z,2828
2018-01-05T13:18:10.187Z,2944
2018-01-05T13:19:10.441Z,3084
2018-01-05T13:20:10.426Z,3140
2018-01-05T13:21:10.407Z,3172
2018-01-05T13:22:10.395Z,3236
2018-01-05T13:23:10.368Z,3380
2018-01-05T13:24:10.619Z,3704
2018-01-05T13:25:10.072Z,3920
2018-01-05T13:26:09.808Z,3772
2018-01-05T13:27:10.307Z,3508
2018-01-05T13:28:10.023Z,3548
2018-01-05T13:29:10.014Z,3728
2018-01-05T13:30:09.992Z,3828
2018-01-05T13:31:09.974Z,3868
2018-01-05T13:32:10.663Z,3864
2018-01-05T13:33:10.218Z,3744
2018-01-05T13:34:10.191Z,3520
2018-01-05T13:35:10.173Z,3504
2018-01-05T13:36:10.438Z,3204
2018-01-05T13:37:09.879Z,3064
2018-01-05T13:38:10.128Z,2904
2018-01-05T13:39:10.099Z,2744
2018-01-05T13:40:10.085Z,2672
2018-01-05T13:41:10.082Z,2576
2018-01-05T13:42:10.059Z,2336
2018-01-05T13:43:10.047Z,2168
2018-01-05T13:44:10.016Z,2400
2018-01-05T13:45:09.736Z,2740
2018-01-05T13:46:09.985Z,2860
2018-01-05T13:47:09.703Z,2900
2018-01-05T13:48:09.951Z,2940
2018-01-05T13:49:09.669Z,2916
2018-01-05T13:50:10.186Z,2868
2018-01-05T13:51:09.639Z,2792
2018-01-05T13:52:09.618Z,2680
2018-01-05T13:53:10.143Z,2528
2018-01-05T13:54:09.583Z,2576
2018-01-05T13:55:09.840Z,2732
2018-01-05T13:56:09.814Z,2832
2018-01-05T13:57:09.538Z,2836
2018-01-05T13:58:09.264Z,2880
2018-01-05T13:59:09.768Z,3004
2018-01-05T14:00:09.749Z,3164
2018-01-05T14:01:09.994Z,3196
2018-01-05T14:02:09.455Z,3196
2018-01-05T14:03:09.446Z,2976
2018-01-05T14:04:09.967Z,2592
2018-01-05T14:05:09.401Z,2336